sensor_id;sensor_type;location;lat;lon;timestamp;P1;durP1;ratioP1;P2;durP2;ratioP2
69392;SDS011;56582;44.624;20.378;2022-12-20T00:00:46;15.68;;;9.02;;
69392;SDS011;56582;44.624;20.378;2022-12-20T00:03:11;19.13;;;9.70;;
69392;SDS011;56582;44.624;20.378;2022-12-20T00:05:37;17.73;;;9.50;;
69392;SDS011;56582;44.624;20.378;2022-12-20T00:08:04;14.38;;;8.43;;
69392;SDS011;56582;44.624;20.378;2022-12-20T00:10:29;17.70;;;8.52;;
69392;SDS011;56582;44.624;20.378;2022-12-20T00:12:55;18.47;;;9.67;;
69392;SDS011;56582;44.624;20.378;2022-12-20T00:15:20;16.30;;;9.60;;
69392;SDS011;56582;44.624;20.378;2022-12-20T00:17:45;22.03;;;11.33;;
69392;SDS011;56582;44.624;20.378;2022-12-20T00:20:11;17.00;;;9.40;;
69392;SDS011;56582;44.624;20.378;2022-12-20T00:22:37;8.50;;;5.37;;
69392;SDS011;56582;44.624;20.378;2022-12-20T00:25:03;17.73;;;8.30;;
69392;SDS011;56582;44.624;20.378;2022-12-20T00:27:29;18.75;;;9.70;;
69392;SDS011;56582;44.624;20.378;2022-12-20T00:29:54;20.20;;;8.60;;
69392;SDS011;56582;44.624;20.378;2022-12-20T00:32:20;21.42;;;10.13;;
69392;SDS011;56582;44.624;20.378;2022-12-20T00:34:45;15.73;;;9.23;;
69392;SDS011;56582;44.624;20.378;2022-12-20T00:37:10;14.57;;;9.30;;
69392;SDS011;56582;44.624;20.378;2022-12-20T00:39:36;16.93;;;8.80;;
69392;SDS011;56582;44.624;20.378;2022-12-20T00:42:01;14.63;;;7.77;;
69392;SDS011;56582;44.624;20.378;2022-12-20T00:44:27;22.07;;;9.80;;
69392;SDS011;56582;44.624;20.378;2022-12-20T00:46:52;15.77;;;8.83;;
69392;SDS011;56582;44.624;20.378;2022-12-20T00:49:18;14.18;;;8.55;;
69392;SDS011;56582;44.624;20.378;2022-12-20T00:51:43;16.37;;;7.33;;
69392;SDS011;56582;44.624;20.378;2022-12-20T00:54:09;16.40;;;9.00;;
69392;SDS011;56582;44.624;20.378;2022-12-20T00:56:34;11.77;;;7.07;;
69392;SDS011;56582;44.624;20.378;2022-12-20T00:59:00;10.18;;;6.00;;
69392;SDS011;56582;44.624;20.378;2022-12-20T01:01:26;12.97;;;8.57;;
69392;SDS011;56582;44.624;20.378;2022-12-20T01:03:54;18.88;;;9.20;;
69392;SDS011;56582;44.624;20.378;2022-12-20T01:06:20;15.13;;;7.90;;
69392;SDS011;56582;44.624;20.378;2022-12-20T01:08:46;11.88;;;6.43;;
69392;SDS011;56582;44.624;20.378;2022-12-20T01:11:13;17.60;;;8.83;;
69392;SDS011;56582;44.624;20.378;2022-12-20T01:13:41;16.75;;;8.40;;
69392;SDS011;56582;44.624;20.378;2022-12-20T01:16:10;11.90;;;7.28;;
69392;SDS011;56582;44.624;20.378;2022-12-20T01:18:37;11.95;;;6.38;;
69392;SDS011;56582;44.624;20.378;2022-12-20T01:21:04;14.70;;;7.43;;
69392;SDS011;56582;44.624;20.378;2022-12-20T01:23:30;11.05;;;6.93;;
69392;SDS011;56582;44.624;20.378;2022-12-20T01:25:57;17.33;;;8.93;;
69392;SDS011;56582;44.624;20.378;2022-12-20T01:28:24;18.05;;;9.27;;
69392;SDS011;56582;44.624;20.378;2022-12-20T01:30:49;17.23;;;9.07;;
69392;SDS011;56582;44.624;20.378;2022-12-20T01:33:14;19.08;;;9.18;;
69392;SDS011;56582;44.624;20.378;2022-12-20T01:35:40;12.97;;;7.60;;
69392;SDS011;56582;44.624;20.378;2022-12-20T01:38:06;15.33;;;7.47;;
69392;SDS011;56582;44.624;20.378;2022-12-20T01:40:31;18.25;;;9.75;;
69392;SDS011;56582;44.624;20.378;2022-12-20T01:42:56;14.67;;;8.30;;
69392;SDS011;56582;44.624;20.378;2022-12-20T01:45:28;21.27;;;9.27;;
69392;SDS011;56582;44.624;20.378;2022-12-20T01:47:55;11.00;;;6.22;;
69392;SDS011;56582;44.624;20.378;2022-12-20T01:50:23;11.23;;;6.10;;
69392;SDS011;56582;44.624;20.378;2022-12-20T01:52:49;17.93;;;8.73;;
69392;SDS011;56582;44.624;20.378;2022-12-20T01:55:24;18.45;;;8.20;;
69392;SDS011;56582;44.624;20.378;2022-12-20T02:00:19;17.38;;;7.78;;
69392;SDS011;56582;44.624;20.378;2022-12-20T02:02:46;10.68;;;6.82;;
69392;SDS011;56582;44.624;20.378;2022-12-20T02:05:13;14.17;;;7.90;;
69392;SDS011;56582;44.624;20.378;2022-12-20T02:07:39;13.57;;;9.18;;
69392;SDS011;56582;44.624;20.378;2022-12-20T02:10:07;13.45;;;7.35;;
69392;SDS011;56582;44.624;20.378;2022-12-20T02:12:39;15.02;;;8.15;;
69392;SDS011;56582;44.624;20.378;2022-12-20T02:17:44;17.70;;;8.70;;
69392;SDS011;56582;44.624;20.378;2022-12-20T02:26:28;15.13;;;8.63;;
69392;SDS011;56582;44.624;20.378;2022-12-20T02:32:21;21.70;;;9.07;;
69392;SDS011;56582;44.624;20.378;2022-12-20T02:35:18;11.07;;;6.78;;
69392;SDS011;56582;44.624;20.378;2022-12-20T02:37:49;15.00;;;7.55;;
69392;SDS011;56582;44.624;20.378;2022-12-20T02:40:18;11.98;;;6.82;;
69392;SDS011;56582;44.624;20.378;2022-12-20T02:42:47;14.75;;;8.05;;
69392;SDS011;56582;44.624;20.378;2022-12-20T02:45:16;16.43;;;9.47;;
69392;SDS011;56582;44.624;20.378;2022-12-20T02:47:49;12.25;;;6.75;;
69392;SDS011;56582;44.624;20.378;2022-12-20T02:50:17;13.55;;;8.27;;
69392;SDS011;56582;44.624;20.378;2022-12-20T02:52:58;12.35;;;6.70;;
69392;SDS011;56582;44.624;20.378;2022-12-20T02:55:28;12.10;;;7.30;;
69392;SDS011;56582;44.624;20.378;2022-12-20T02:58:04;12.73;;;7.60;;
69392;SDS011;56582;44.624;20.378;2022-12-20T03:00:36;16.08;;;8.30;;
69392;SDS011;56582;44.624;20.378;2022-12-20T03:03:04;13.52;;;7.05;;
69392;SDS011;56582;44.624;20.378;2022-12-20T03:05:52;13.75;;;7.80;;
69392;SDS011;56582;44.624;20.378;2022-12-20T03:08:20;14.77;;;7.83;;
69392;SDS011;56582;44.624;20.378;2022-12-20T03:10:46;15.32;;;7.07;;
69392;SDS011;56582;44.624;20.378;2022-12-20T03:13:12;9.82;;;6.68;;
69392;SDS011;56582;44.624;20.378;2022-12-20T03:15:38;12.90;;;7.60;;
69392;SDS011;56582;44.624;20.378;2022-12-20T03:18:03;12.55;;;8.52;;
69392;SDS011;56582;44.624;20.378;2022-12-20T03:20:29;18.33;;;9.10;;
69392;SDS011;56582;44.624;20.378;2022-12-20T03:22:54;9.20;;;6.50;;
69392;SDS011;56582;44.624;20.378;2022-12-20T03:25:20;16.23;;;7.77;;
69392;SDS011;56582;44.624;20.378;2022-12-20T03:27:45;14.90;;;8.32;;
69392;SDS011;56582;44.624;20.378;2022-12-20T03:30:11;15.97;;;8.40;;
69392;SDS011;56582;44.624;20.378;2022-12-20T03:32:37;12.35;;;7.45;;
69392;SDS011;56582;44.624;20.378;2022-12-20T03:35:03;12.47;;;8.13;;
69392;SDS011;56582;44.624;20.378;2022-12-20T03:37:29;11.57;;;7.10;;
69392;SDS011;56582;44.624;20.378;2022-12-20T03:39:54;12.10;;;6.83;;
69392;SDS011;56582;44.624;20.378;2022-12-20T03:42:19;14.93;;;8.13;;
69392;SDS011;56582;44.624;20.378;2022-12-20T03:44:45;13.50;;;7.17;;
69392;SDS011;56582;44.624;20.378;2022-12-20T03:47:11;15.75;;;8.38;;
69392;SDS011;56582;44.624;20.378;2022-12-20T03:49:36;11.23;;;7.10;;
69392;SDS011;56582;44.624;20.378;2022-12-20T03:52:02;15.50;;;7.93;;
69392;SDS011;56582;44.624;20.378;2022-12-20T03:54:27;17.05;;;8.27;;
69392;SDS011;56582;44.624;20.378;2022-12-20T03:56:53;15.73;;;7.13;;
69392;SDS011;56582;44.624;20.378;2022-12-20T03:59:19;12.37;;;6.10;;
69392;SDS011;56582;44.624;20.378;2022-12-20T04:01:44;12.02;;;7.10;;
69392;SDS011;56582;44.624;20.378;2022-12-20T04:04:11;16.20;;;8.43;;
69392;SDS011;56582;44.624;20.378;2022-12-20T04:06:38;14.25;;;7.32;;
69392;SDS011;56582;44.624;20.378;2022-12-20T04:09:04;15.97;;;7.80;;
69392;SDS011;56582;44.624;20.378;2022-12-20T04:11:29;15.90;;;7.60;;
69392;SDS011;56582;44.624;20.378;2022-12-20T04:13:55;16.13;;;8.07;;
69392;SDS011;56582;44.624;20.378;2022-12-20T04:16:26;15.97;;;8.83;;
69392;SDS011;56582;44.624;20.378;2022-12-20T04:18:52;13.45;;;7.95;;
69392;SDS011;56582;44.624;20.378;2022-12-20T04:21:22;16.70;;;7.78;;
69392;SDS011;56582;44.624;20.378;2022-12-20T04:23:48;16.95;;;8.23;;
69392;SDS011;56582;44.624;20.378;2022-12-20T04:26:15;15.52;;;8.40;;
69392;SDS011;56582;44.624;20.378;2022-12-20T04:28:41;19.93;;;9.33;;
69392;SDS011;56582;44.624;20.378;2022-12-20T04:31:06;14.90;;;7.47;;
69392;SDS011;56582;44.624;20.378;2022-12-20T04:33:32;8.47;;;5.50;;
69392;SDS011;56582;44.624;20.378;2022-12-20T04:35:58;12.38;;;6.93;;
69392;SDS011;56582;44.624;20.378;2022-12-20T04:38:23;15.53;;;9.13;;
69392;SDS011;56582;44.624;20.378;2022-12-20T04:40:49;11.77;;;7.10;;
69392;SDS011;56582;44.624;20.378;2022-12-20T04:43:16;14.60;;;8.02;;
69392;SDS011;56582;44.624;20.378;2022-12-20T04:45:42;15.27;;;9.43;;
69392;SDS011;56582;44.624;20.378;2022-12-20T04:48:09;12.20;;;8.10;;
69392;SDS011;56582;44.624;20.378;2022-12-20T04:50:35;18.88;;;9.77;;
69392;SDS011;56582;44.624;20.378;2022-12-20T04:53:00;21.53;;;10.00;;
69392;SDS011;56582;44.624;20.378;2022-12-20T04:55:44;16.45;;;7.75;;
69392;SDS011;56582;44.624;20.378;2022-12-20T04:58:10;14.83;;;7.70;;
69392;SDS011;56582;44.624;20.378;2022-12-20T05:00:35;15.15;;;8.77;;
69392;SDS011;56582;44.624;20.378;2022-12-20T05:03:01;12.93;;;8.13;;
69392;SDS011;56582;44.624;20.378;2022-12-20T05:05:26;17.43;;;8.70;;
69392;SDS011;56582;44.624;20.378;2022-12-20T05:07:52;11.93;;;7.40;;
69392;SDS011;56582;44.624;20.378;2022-12-20T05:10:18;16.33;;;9.03;;
69392;SDS011;56582;44.624;20.378;2022-12-20T05:12:44;19.75;;;9.13;;
69392;SDS011;56582;44.624;20.378;2022-12-20T05:15:11;20.55;;;9.20;;
69392;SDS011;56582;44.624;20.378;2022-12-20T05:17:36;15.32;;;8.13;;
69392;SDS011;56582;44.624;20.378;2022-12-20T05:20:02;15.43;;;8.87;;
69392;SDS011;56582;44.624;20.378;2022-12-20T05:22:29;15.73;;;9.27;;
69392;SDS011;56582;44.624;20.378;2022-12-20T05:25:14;10.60;;;7.00;;
69392;SDS011;56582;44.624;20.378;2022-12-20T05:27:58;19.75;;;8.50;;
69392;SDS011;56582;44.624;20.378;2022-12-20T05:30:24;15.27;;;8.70;;
69392;SDS011;56582;44.624;20.378;2022-12-20T05:32:49;16.83;;;8.95;;
69392;SDS011;56582;44.624;20.378;2022-12-20T05:35:15;14.83;;;8.30;;
69392;SDS011;56582;44.624;20.378;2022-12-20T05:37:40;23.30;;;10.27;;
69392;SDS011;56582;44.624;20.378;2022-12-20T05:40:06;15.93;;;8.37;;
69392;SDS011;56582;44.624;20.378;2022-12-20T05:42:32;14.30;;;8.90;;
69392;SDS011;56582;44.624;20.378;2022-12-20T05:44:57;13.85;;;7.05;;
69392;SDS011;56582;44.624;20.378;2022-12-20T05:47:24;17.87;;;9.57;;
69392;SDS011;56582;44.624;20.378;2022-12-20T05:49:50;10.93;;;7.05;;
69392;SDS011;56582;44.624;20.378;2022-12-20T05:52:15;16.73;;;8.37;;
69392;SDS011;56582;44.624;20.378;2022-12-20T05:54:41;15.70;;;8.87;;
69392;SDS011;56582;44.624;20.378;2022-12-20T05:57:06;16.45;;;8.88;;
69392;SDS011;56582;44.624;20.378;2022-12-20T05:59:32;16.03;;;8.07;;
69392;SDS011;56582;44.624;20.378;2022-12-20T06:01:57;15.90;;;9.07;;
69392;SDS011;56582;44.624;20.378;2022-12-20T06:04:23;20.70;;;10.05;;
69392;SDS011;56582;44.624;20.378;2022-12-20T06:06:48;11.90;;;7.10;;
69392;SDS011;56582;44.624;20.378;2022-12-20T06:09:14;15.77;;;9.37;;
69392;SDS011;56582;44.624;20.378;2022-12-20T06:11:39;18.93;;;8.87;;
69392;SDS011;56582;44.624;20.378;2022-12-20T06:14:04;17.23;;;9.85;;
69392;SDS011;56582;44.624;20.378;2022-12-20T06:16:30;11.20;;;7.53;;
69392;SDS011;56582;44.624;20.378;2022-12-20T06:18:55;17.73;;;10.03;;
69392;SDS011;56582;44.624;20.378;2022-12-20T06:21:21;19.43;;;10.33;;
69392;SDS011;56582;44.624;20.378;2022-12-20T06:23:47;15.90;;;9.73;;
69392;SDS011;56582;44.624;20.378;2022-12-20T06:26:12;21.07;;;10.10;;
69392;SDS011;56582;44.624;20.378;2022-12-20T06:28:38;13.27;;;8.18;;
69392;SDS011;56582;44.624;20.378;2022-12-20T06:31:10;16.07;;;7.87;;
69392;SDS011;56582;44.624;20.378;2022-12-20T06:33:36;14.32;;;8.68;;
69392;SDS011;56582;44.624;20.378;2022-12-20T06:36:02;22.05;;;9.05;;
69392;SDS011;56582;44.624;20.378;2022-12-20T06:38:28;16.58;;;9.75;;
69392;SDS011;56582;44.624;20.378;2022-12-20T06:40:53;13.77;;;7.37;;
69392;SDS011;56582;44.624;20.378;2022-12-20T06:43:18;15.50;;;7.87;;
69392;SDS011;56582;44.624;20.378;2022-12-20T06:45:44;13.10;;;8.03;;
69392;SDS011;56582;44.624;20.378;2022-12-20T06:48:10;14.77;;;7.47;;
69392;SDS011;56582;44.624;20.378;2022-12-20T06:50:36;12.90;;;7.68;;
69392;SDS011;56582;44.624;20.378;2022-12-20T06:53:02;13.10;;;7.63;;
69392;SDS011;56582;44.624;20.378;2022-12-20T06:55:28;16.87;;;8.70;;
69392;SDS011;56582;44.624;20.378;2022-12-20T06:57:53;13.10;;;8.00;;
69392;SDS011;56582;44.624;20.378;2022-12-20T07:00:20;18.52;;;9.63;;
69392;SDS011;56582;44.624;20.378;2022-12-20T07:02:46;15.45;;;8.90;;
69392;SDS011;56582;44.624;20.378;2022-12-20T07:05:12;16.00;;;8.33;;
69392;SDS011;56582;44.624;20.378;2022-12-20T07:07:37;10.33;;;6.77;;
69392;SDS011;56582;44.624;20.378;2022-12-20T07:10:02;13.37;;;7.83;;
69392;SDS011;56582;44.624;20.378;2022-12-20T07:12:28;18.55;;;9.88;;
69392;SDS011;56582;44.624;20.378;2022-12-20T07:14:54;10.77;;;7.80;;
69392;SDS011;56582;44.624;20.378;2022-12-20T07:17:19;17.60;;;9.32;;
69392;SDS011;56582;44.624;20.378;2022-12-20T07:19:45;14.10;;;8.90;;
69392;SDS011;56582;44.624;20.378;2022-12-20T07:22:10;16.97;;;9.00;;
69392;SDS011;56582;44.624;20.378;2022-12-20T07:24:36;17.40;;;10.07;;
69392;SDS011;56582;44.624;20.378;2022-12-20T07:27:01;15.05;;;8.32;;
69392;SDS011;56582;44.624;20.378;2022-12-20T07:29:27;16.63;;;9.70;;
69392;SDS011;56582;44.624;20.378;2022-12-20T07:31:53;17.38;;;9.88;;
69392;SDS011;56582;44.624;20.378;2022-12-20T07:34:18;16.83;;;9.33;;
69392;SDS011;56582;44.624;20.378;2022-12-20T07:36:45;20.52;;;10.38;;
69392;SDS011;56582;44.624;20.378;2022-12-20T07:39:11;12.90;;;8.13;;
69392;SDS011;56582;44.624;20.378;2022-12-20T07:41:36;18.98;;;9.70;;
69392;SDS011;56582;44.624;20.378;2022-12-20T07:44:02;16.37;;;9.40;;
69392;SDS011;56582;44.624;20.378;2022-12-20T07:46:28;18.75;;;10.52;;
69392;SDS011;56582;44.624;20.378;2022-12-20T07:48:53;20.83;;;10.60;;
69392;SDS011;56582;44.624;20.378;2022-12-20T07:51:27;19.90;;;9.98;;
69392;SDS011;56582;44.624;20.378;2022-12-20T07:54:02;19.80;;;10.60;;
69392;SDS011;56582;44.624;20.378;2022-12-20T07:56:31;14.70;;;7.57;;
69392;SDS011;56582;44.624;20.378;2022-12-20T07:59:00;16.55;;;9.07;;
69392;SDS011;56582;44.624;20.378;2022-12-20T08:01:26;20.00;;;11.18;;
69392;SDS011;56582;44.624;20.378;2022-12-20T08:03:56;18.10;;;9.65;;
69392;SDS011;56582;44.624;20.378;2022-12-20T08:06:35;19.25;;;10.73;;
69392;SDS011;56582;44.624;20.378;2022-12-20T08:09:03;15.50;;;8.90;;
69392;SDS011;56582;44.624;20.378;2022-12-20T08:11:29;20.80;;;9.90;;
69392;SDS011;56582;44.624;20.378;2022-12-20T08:13:58;17.02;;;9.85;;
69392;SDS011;56582;44.624;20.378;2022-12-20T08:16:24;18.90;;;10.50;;
69392;SDS011;56582;44.624;20.378;2022-12-20T08:18:49;11.68;;;8.05;;
69392;SDS011;56582;44.624;20.378;2022-12-20T08:21:15;20.40;;;10.40;;
69392;SDS011;56582;44.624;20.378;2022-12-20T08:23:40;17.10;;;9.63;;
69392;SDS011;56582;44.624;20.378;2022-12-20T08:26:06;17.87;;;9.90;;
69392;SDS011;56582;44.624;20.378;2022-12-20T08:28:31;14.97;;;8.93;;
69392;SDS011;56582;44.624;20.378;2022-12-20T08:31:03;20.53;;;10.63;;
69392;SDS011;56582;44.624;20.378;2022-12-20T08:33:31;18.55;;;10.38;;
69392;SDS011;56582;44.624;20.378;2022-12-20T08:36:00;19.05;;;10.13;;
69392;SDS011;56582;44.624;20.378;2022-12-20T08:38:28;18.60;;;10.52;;
69392;SDS011;56582;44.624;20.378;2022-12-20T08:40:55;12.53;;;5.97;;
69392;SDS011;56582;44.624;20.378;2022-12-20T08:43:20;18.77;;;9.85;;
69392;SDS011;56582;44.624;20.378;2022-12-20T08:45:53;16.07;;;10.40;;
69392;SDS011;56582;44.624;20.378;2022-12-20T08:48:19;18.55;;;9.30;;
69392;SDS011;56582;44.624;20.378;2022-12-20T08:50:45;15.82;;;9.20;;
69392;SDS011;56582;44.624;20.378;2022-12-20T08:53:11;19.53;;;9.40;;
69392;SDS011;56582;44.624;20.378;2022-12-20T08:55:36;17.80;;;10.33;;
69392;SDS011;56582;44.624;20.378;2022-12-20T08:58:02;16.73;;;9.97;;
69392;SDS011;56582;44.624;20.378;2022-12-20T09:00:27;17.02;;;8.80;;
69392;SDS011;56582;44.624;20.378;2022-12-20T09:02:53;17.97;;;9.67;;
69392;SDS011;56582;44.624;20.378;2022-12-20T09:05:19;17.70;;;9.73;;
69392;SDS011;56582;44.624;20.378;2022-12-20T09:07:44;19.90;;;10.53;;
69392;SDS011;56582;44.624;20.378;2022-12-20T09:10:10;20.73;;;10.90;;
69392;SDS011;56582;44.624;20.378;2022-12-20T09:12:37;16.90;;;9.73;;
69392;SDS011;56582;44.624;20.378;2022-12-20T09:15:03;17.30;;;10.45;;
69392;SDS011;56582;44.624;20.378;2022-12-20T09:17:29;20.58;;;11.43;;
69392;SDS011;56582;44.624;20.378;2022-12-20T09:19:55;18.27;;;11.20;;
69392;SDS011;56582;44.624;20.378;2022-12-20T09:22:20;17.60;;;9.27;;
69392;SDS011;56582;44.624;20.378;2022-12-20T09:24:46;19.73;;;10.82;;
69392;SDS011;56582;44.624;20.378;2022-12-20T09:27:11;16.37;;;11.07;;
69392;SDS011;56582;44.624;20.378;2022-12-20T09:29:36;20.20;;;11.00;;
69392;SDS011;56582;44.624;20.378;2022-12-20T09:32:02;20.23;;;10.27;;
69392;SDS011;56582;44.624;20.378;2022-12-20T09:34:28;19.58;;;9.75;;
69392;SDS011;56582;44.624;20.378;2022-12-20T09:36:53;19.67;;;9.43;;
69392;SDS011;56582;44.624;20.378;2022-12-20T09:39:19;17.30;;;9.05;;
69392;SDS011;56582;44.624;20.378;2022-12-20T09:41:44;16.77;;;9.23;;
69392;SDS011;56582;44.624;20.378;2022-12-20T09:44:12;17.43;;;8.73;;
69392;SDS011;56582;44.624;20.378;2022-12-20T09:46:41;16.80;;;8.40;;
69392;SDS011;56582;44.624;20.378;2022-12-20T09:49:10;16.50;;;9.55;;
69392;SDS011;56582;44.624;20.378;2022-12-20T09:59:49;21.00;;;10.20;;
69392;SDS011;56582;44.624;20.378;2022-12-20T10:02:17;19.30;;;10.65;;
69392;SDS011;56582;44.624;20.378;2022-12-20T10:04:46;22.93;;;12.10;;
69392;SDS011;56582;44.624;20.378;2022-12-20T10:10:06;20.08;;;11.00;;
69392;SDS011;56582;44.624;20.378;2022-12-20T10:23:18;20.80;;;11.23;;
69392;SDS011;56582;44.624;20.378;2022-12-20T10:25:48;20.23;;;10.23;;
69392;SDS011;56582;44.624;20.378;2022-12-20T10:28:16;21.35;;;11.50;;
69392;SDS011;56582;44.624;20.378;2022-12-20T10:30:46;20.10;;;10.05;;
69392;SDS011;56582;44.624;20.378;2022-12-20T10:33:15;19.43;;;10.43;;
69392;SDS011;56582;44.624;20.378;2022-12-20T10:35:45;19.48;;;11.63;;
69392;SDS011;56582;44.624;20.378;2022-12-20T10:38:12;18.25;;;9.93;;
69392;SDS011;56582;44.624;20.378;2022-12-20T10:40:45;18.35;;;10.80;;
69392;SDS011;56582;44.624;20.378;2022-12-20T10:43:15;21.00;;;11.20;;
69392;SDS011;56582;44.624;20.378;2022-12-20T10:45:44;23.17;;;11.68;;
69392;SDS011;56582;44.624;20.378;2022-12-20T10:48:27;18.67;;;10.07;;
69392;SDS011;56582;44.624;20.378;2022-12-20T10:51:11;16.48;;;8.30;;
69392;SDS011;56582;44.624;20.378;2022-12-20T10:56:26;23.03;;;10.60;;
69392;SDS011;56582;44.624;20.378;2022-12-20T11:01:49;18.58;;;9.77;;
69392;SDS011;56582;44.624;20.378;2022-12-20T11:07:30;17.67;;;10.73;;
69392;SDS011;56582;44.624;20.378;2022-12-20T11:09:58;20.02;;;10.93;;
69392;SDS011;56582;44.624;20.378;2022-12-20T11:15:20;19.02;;;9.88;;
69392;SDS011;56582;44.624;20.378;2022-12-20T11:17:51;20.50;;;11.67;;
69392;SDS011;56582;44.624;20.378;2022-12-20T11:20:24;21.60;;;10.30;;
69392;SDS011;56582;44.624;20.378;2022-12-20T11:23:40;21.58;;;12.10;;
69392;SDS011;56582;44.624;20.378;2022-12-20T11:31:22;18.37;;;10.93;;
69392;SDS011;56582;44.624;20.378;2022-12-20T11:42:53;19.23;;;11.05;;
69392;SDS011;56582;44.624;20.378;2022-12-20T11:45:44;21.27;;;10.73;;
69392;SDS011;56582;44.624;20.378;2022-12-20T11:53:55;21.30;;;11.85;;
69392;SDS011;56582;44.624;20.378;2022-12-20T11:56:35;22.38;;;12.40;;
69392;SDS011;56582;44.624;20.378;2022-12-20T11:59:03;21.17;;;12.93;;
69392;SDS011;56582;44.624;20.378;2022-12-20T12:01:52;22.80;;;12.38;;
69392;SDS011;56582;44.624;20.378;2022-12-20T12:04:26;22.17;;;11.75;;
69392;SDS011;56582;44.624;20.378;2022-12-20T12:07:05;21.17;;;11.57;;
69392;SDS011;56582;44.624;20.378;2022-12-20T12:09:37;20.30;;;10.48;;
69392;SDS011;56582;44.624;20.378;2022-12-20T12:12:14;44.13;;;20.00;;
69392;SDS011;56582;44.624;20.378;2022-12-20T12:23:22;20.40;;;12.32;;
69392;SDS011;56582;44.624;20.378;2022-12-20T12:25:48;23.53;;;12.27;;
69392;SDS011;56582;44.624;20.378;2022-12-20T12:28:14;20.85;;;11.68;;
69392;SDS011;56582;44.624;20.378;2022-12-20T12:30:43;23.17;;;11.23;;
69392;SDS011;56582;44.624;20.378;2022-12-20T12:33:47;21.58;;;12.30;;
69392;SDS011;56582;44.624;20.378;2022-12-20T12:45:01;19.17;;;10.70;;
69392;SDS011;56582;44.624;20.378;2022-12-20T12:47:43;19.88;;;10.80;;
69392;SDS011;56582;44.624;20.378;2022-12-20T12:50:32;20.65;;;11.15;;
69392;SDS011;56582;44.624;20.378;2022-12-20T12:53:05;20.63;;;10.95;;
69392;SDS011;56582;44.624;20.378;2022-12-20T12:55:48;18.42;;;10.25;;
69392;SDS011;56582;44.624;20.378;2022-12-20T13:03:16;18.27;;;10.52;;
69392;SDS011;56582;44.624;20.378;2022-12-20T13:11:31;22.07;;;11.40;;
69392;SDS011;56582;44.624;20.378;2022-12-20T13:16:41;20.30;;;10.95;;
69392;SDS011;56582;44.624;20.378;2022-12-20T13:19:10;21.80;;;11.98;;
69392;SDS011;56582;44.624;20.378;2022-12-20T13:21:38;17.23;;;9.90;;
69392;SDS011;56582;44.624;20.378;2022-12-20T13:24:27;17.10;;;9.43;;
69392;SDS011;56582;44.624;20.378;2022-12-20T13:27:20;18.65;;;9.60;;
69392;SDS011;56582;44.624;20.378;2022-12-20T13:29:51;20.85;;;10.95;;
69392;SDS011;56582;44.624;20.378;2022-12-20T13:40:28;22.35;;;11.48;;
69392;SDS011;56582;44.624;20.378;2022-12-20T13:43:23;18.63;;;9.37;;
69392;SDS011;56582;44.624;20.378;2022-12-20T13:48:51;21.35;;;9.95;;
69392;SDS011;56582;44.624;20.378;2022-12-20T13:51:21;20.33;;;10.35;;
69392;SDS011;56582;44.624;20.378;2022-12-20T13:54:33;20.60;;;11.43;;
69392;SDS011;56582;44.624;20.378;2022-12-20T14:01:49;22.60;;;11.33;;
69392;SDS011;56582;44.624;20.378;2022-12-20T14:04:18;20.70;;;11.40;;
69392;SDS011;56582;44.624;20.378;2022-12-20T14:06:55;24.23;;;11.05;;
69392;SDS011;56582;44.624;20.378;2022-12-20T14:12:00;19.10;;;9.77;;
69392;SDS011;56582;44.624;20.378;2022-12-20T14:14:27;19.15;;;9.60;;
69392;SDS011;56582;44.624;20.378;2022-12-20T14:16:53;20.63;;;10.63;;
69392;SDS011;56582;44.624;20.378;2022-12-20T14:19:18;19.80;;;10.33;;
69392;SDS011;56582;44.624;20.378;2022-12-20T14:21:43;20.07;;;10.53;;
69392;SDS011;56582;44.624;20.378;2022-12-20T14:24:14;23.27;;;11.43;;
69392;SDS011;56582;44.624;20.378;2022-12-20T14:26:43;20.40;;;10.77;;
69392;SDS011;56582;44.624;20.378;2022-12-20T14:29:15;20.20;;;9.20;;
69392;SDS011;56582;44.624;20.378;2022-12-20T14:31:43;20.23;;;10.23;;
69392;SDS011;56582;44.624;20.378;2022-12-20T14:37:16;21.40;;;11.70;;
69392;SDS011;56582;44.624;20.378;2022-12-20T14:42:34;24.77;;;12.13;;
69392;SDS011;56582;44.624;20.378;2022-12-20T14:50:44;23.15;;;11.60;;
69392;SDS011;56582;44.624;20.378;2022-12-20T14:53:22;24.23;;;13.93;;
69392;SDS011;56582;44.624;20.378;2022-12-20T14:55:52;26.92;;;15.07;;
69392;SDS011;56582;44.624;20.378;2022-12-20T15:00:58;25.10;;;13.27;;
69392;SDS011;56582;44.624;20.378;2022-12-20T15:03:52;34.20;;;19.38;;
69392;SDS011;56582;44.624;20.378;2022-12-20T15:09:17;26.67;;;14.05;;
69392;SDS011;56582;44.624;20.378;2022-12-20T15:11:43;40.23;;;22.33;;
69392;SDS011;56582;44.624;20.378;2022-12-20T15:14:25;30.88;;;16.48;;
69392;SDS011;56582;44.624;20.378;2022-12-20T15:16:58;36.78;;;20.15;;
69392;SDS011;56582;44.624;20.378;2022-12-20T15:19:24;34.20;;;18.63;;
69392;SDS011;56582;44.624;20.378;2022-12-20T15:21:49;33.45;;;18.42;;
69392;SDS011;56582;44.624;20.378;2022-12-20T15:24:16;25.20;;;13.43;;
69392;SDS011;56582;44.624;20.378;2022-12-20T15:26:45;32.22;;;16.67;;
69392;SDS011;56582;44.624;20.378;2022-12-20T15:29:15;28.50;;;14.85;;
69392;SDS011;56582;44.624;20.378;2022-12-20T15:31:45;25.70;;;12.93;;
69392;SDS011;56582;44.624;20.378;2022-12-20T15:34:17;25.98;;;14.10;;
69392;SDS011;56582;44.624;20.378;2022-12-20T15:36:48;24.37;;;15.83;;
69392;SDS011;56582;44.624;20.378;2022-12-20T15:39:13;26.63;;;12.63;;
69392;SDS011;56582;44.624;20.378;2022-12-20T15:41:40;28.00;;;18.83;;
69392;SDS011;56582;44.624;20.378;2022-12-20T15:44:23;29.75;;;17.55;;
69392;SDS011;56582;44.624;20.378;2022-12-20T15:46:53;24.50;;;13.17;;
69392;SDS011;56582;44.624;20.378;2022-12-20T15:49:19;23.88;;;13.70;;
69392;SDS011;56582;44.624;20.378;2022-12-20T15:51:47;23.15;;;13.15;;
69392;SDS011;56582;44.624;20.378;2022-12-20T15:54:30;22.47;;;12.30;;
69392;SDS011;56582;44.624;20.378;2022-12-20T15:56:58;21.40;;;12.65;;
69392;SDS011;56582;44.624;20.378;2022-12-20T15:59:29;27.25;;;13.68;;
69392;SDS011;56582;44.624;20.378;2022-12-20T16:01:55;20.48;;;12.52;;
69392;SDS011;56582;44.624;20.378;2022-12-20T16:04:20;27.37;;;14.20;;
69392;SDS011;56582;44.624;20.378;2022-12-20T16:06:47;24.15;;;12.02;;
69392;SDS011;56582;44.624;20.378;2022-12-20T16:09:14;28.13;;;12.25;;
69392;SDS011;56582;44.624;20.378;2022-12-20T16:11:40;24.13;;;12.97;;
69392;SDS011;56582;44.624;20.378;2022-12-20T16:14:08;23.77;;;13.63;;
69392;SDS011;56582;44.624;20.378;2022-12-20T16:16:39;26.75;;;14.90;;
69392;SDS011;56582;44.624;20.378;2022-12-20T16:19:04;32.60;;;17.10;;
69392;SDS011;56582;44.624;20.378;2022-12-20T16:21:30;25.73;;;13.48;;
69392;SDS011;56582;44.624;20.378;2022-12-20T16:24:04;24.70;;;13.80;;
69392;SDS011;56582;44.624;20.378;2022-12-20T16:26:30;23.50;;;12.40;;
69392;SDS011;56582;44.624;20.378;2022-12-20T16:28:56;24.13;;;12.50;;
69392;SDS011;56582;44.624;20.378;2022-12-20T16:33:52;25.13;;;12.77;;
69392;SDS011;56582;44.624;20.378;2022-12-20T16:36:18;23.02;;;13.30;;
69392;SDS011;56582;44.624;20.378;2022-12-20T16:38:44;26.13;;;13.37;;
69392;SDS011;56582;44.624;20.378;2022-12-20T16:41:17;29.63;;;14.47;;